sensor_id;sensor_type;location;lat;lon;timestamp;pressure;altitude;pressure_sealevel;temperature;humidity
35918;BME280;22011;59.912;30.300;2023-02-19T00:01:29;99056.78;;;-1.85;64.58
35918;BME280;22011;59.912;30.300;2023-02-19T00:03:59;99054.81;;;-1.92;65.61
35918;BME280;22011;59.912;30.300;2023-02-19T00:06:28;99059.03;;;-2.01;66.54
35918;BME280;22011;59.912;30.300;2023-02-19T00:08:56;99049.78;;;-2.05;65.87
35918;BME280;22011;59.912;30.300;2023-02-19T00:11:27;99053.94;;;-2.03;66.42
35918;BME280;22011;59.912;30.300;2023-02-19T00:13:56;99048.84;;;-2.04;67.23
35918;BME280;22011;59.912;30.300;2023-02-19T00:16:25;99056.66;;;-2.04;67.01
35918;BME280;22011;59.912;30.300;2023-02-19T00:18:55;99031.94;;;-2.10;66.74
35918;BME280;22011;59.912;30.300;2023-02-19T00:21:23;99047.72;;;-2.11;67.27
35918;BME280;22011;59.912;30.300;2023-02-19T00:23:52;99047.31;;;-2.07;67.14
35918;BME280;22011;59.912;30.300;2023-02-19T00:26:21;99039.63;;;-2.08;67.07
35918;BME280;22011;59.912;30.300;2023-02-19T00:28:51;99049.78;;;-2.05;67.12
35918;BME280;22011;59.912;30.300;2023-02-19T00:31:21;99043.75;;;-2.06;67.02
35918;BME280;22011;59.912;30.300;2023-02-19T00:33:50;99042.09;;;-2.07;67.40
35918;BME280;22011;59.912;30.300;2023-02-19T00:36:19;99043.47;;;-2.12;67.37
35918;BME280;22011;59.912;30.300;2023-02-19T00:38:47;99045.38;;;-2.14;67.38
35918;BME280;22011;59.912;30.300;2023-02-19T00:41:15;99035.63;;;-2.12;67.35
35918;BME280;22011;59.912;30.300;2023-02-19T00:43:48;99037.81;;;-2.08;68.22
35918;BME280;22011;59.912;30.300;2023-02-19T00:46:19;99033.75;;;-2.01;67.16
35918;BME280;22011;59.912;30.300;2023-02-19T00:48:47;99032.09;;;-2.02;66.78
35918;BME280;22011;59.912;30.300;2023-02-19T00:51:15;99032.91;;;-2.01;66.32
35918;BME280;22011;59.912;30.300;2023-02-19T00:53:43;99025.06;;;-2.11;67.00
35918;BME280;22011;59.912;30.300;2023-02-19T00:56:11;99018.56;;;-2.16;66.83
35918;BME280;22011;59.912;30.300;2023-02-19T00:58:38;99023.09;;;-2.18;67.99
35918;BME280;22011;59.912;30.300;2023-02-19T01:01:07;99029.13;;;-2.18;67.44
35918;BME280;22011;59.912;30.300;2023-02-19T01:03:36;99028.75;;;-2.13;67.61
35918;BME280;22011;59.912;30.300;2023-02-19T01:06:07;99024.09;;;-2.10;67.52
35918;BME280;22011;59.912;30.300;2023-02-19T01:08:35;99018.28;;;-1.92;67.40
35918;BME280;22011;59.912;30.300;2023-02-19T01:11:05;99033.16;;;-2.14;67.62
35918;BME280;22011;59.912;30.300;2023-02-19T01:13:33;99027.47;;;-2.19;68.48
35918;BME280;22011;59.912;30.300;2023-02-19T01:16:05;99029.25;;;-2.19;68.09
35918;BME280;22011;59.912;30.300;2023-02-19T01:18:33;99014.69;;;-2.22;68.30
35918;BME280;22011;59.912;30.300;2023-02-19T01:21:06;99025.56;;;-2.17;68.20
35918;BME280;22011;59.912;30.300;2023-02-19T01:23:34;99023.22;;;-2.20;67.83
35918;BME280;22011;59.912;30.300;2023-02-19T01:26:03;99020.34;;;-2.17;67.29
35918;BME280;22011;59.912;30.300;2023-02-19T01:28:31;99016.91;;;-2.17;67.74
35918;BME280;22011;59.912;30.300;2023-02-19T01:31:00;99017.88;;;-2.18;67.56
35918;BME280;22011;59.912;30.300;2023-02-19T01:33:28;99014.31;;;-2.17;68.72
35918;BME280;22011;59.912;30.300;2023-02-19T01:35:55;99013.59;;;-2.19;68.61
35918;BME280;22011;59.912;30.300;2023-02-19T01:38:25;99019.28;;;-2.14;68.91
35918;BME280;22011;59.912;30.300;2023-02-19T01:40:55;99010.94;;;-2.08;68.64
35918;BME280;22011;59.912;30.300;2023-02-19T01:43:24;99008.31;;;-2.08;68.07
35918;BME280;22011;59.912;30.300;2023-02-19T01:45:52;99007.22;;;-2.06;68.34
35918;BME280;22011;59.912;30.300;2023-02-19T01:48:22;99009.69;;;-2.04;68.55
35918;BME280;22011;59.912;30.300;2023-02-19T01:50:54;99006.25;;;-2.05;68.24
35918;BME280;22011;59.912;30.300;2023-02-19T01:53:27;98995.00;;;-2.05;68.80
35918;BME280;22011;59.912;30.300;2023-02-19T01:55:57;98996.22;;;-2.09;69.00
35918;BME280;22011;59.912;30.300;2023-02-19T01:58:30;99003.78;;;-2.06;69.39
35918;BME280;22011;59.912;30.300;2023-02-19T02:01:00;99007.75;;;-2.12;69.19
35918;BME280;22011;59.912;30.300;2023-02-19T02:03:30;98999.81;;;-2.10;69.29
35918;BME280;22011;59.912;30.300;2023-02-19T02:06:01;98999.22;;;-2.14;69.35
35918;BME280;22011;59.912;30.300;2023-02-19T02:08:30;98999.81;;;-2.10;69.48
35918;BME280;22011;59.912;30.300;2023-02-19T02:11:20;98989.22;;;-2.09;68.73
35918;BME280;22011;59.912;30.300;2023-02-19T02:13:48;98994.84;;;-2.13;68.89
35918;BME280;22011;59.912;30.300;2023-02-19T02:16:22;98993.47;;;-2.08;69.54
35918;BME280;22011;59.912;30.300;2023-02-19T02:18:58;98998.97;;;-2.11;69.45
35918;BME280;22011;59.912;30.300;2023-02-19T02:21:35;98986.47;;;-2.07;69.49
35918;BME280;22011;59.912;30.300;2023-02-19T02:27:30;98988.88;;;-1.94;69.35
35918;BME280;22011;59.912;30.300;2023-02-19T02:30:12;98978.00;;;-2.00;69.01
35918;BME280;22011;59.912;30.300;2023-02-19T02:32:48;98978.13;;;-2.01;69.64
35918;BME280;22011;59.912;30.300;2023-02-19T02:35:23;98973.84;;;-2.02;69.16
35918;BME280;22011;59.912;30.300;2023-02-19T02:37:54;98984.69;;;-2.07;68.63
35918;BME280;22011;59.912;30.300;2023-02-19T02:40:24;98972.75;;;-2.09;68.26
35918;BME280;22011;59.912;30.300;2023-02-19T02:42:51;98975.63;;;-2.12;68.55
35918;BME280;22011;59.912;30.300;2023-02-19T02:45:25;98971.50;;;-2.05;68.39
35918;BME280;22011;59.912;30.300;2023-02-19T02:48:27;98973.72;;;-2.01;68.76
35918;BME280;22011;59.912;30.300;2023-02-19T02:51:00;98978.09;;;-2.11;68.42
35918;BME280;22011;59.912;30.300;2023-02-19T02:53:38;98983.56;;;-2.14;68.71
35918;BME280;22011;59.912;30.300;2023-02-19T02:56:25;98975.75;;;-2.14;68.86
35918;BME280;22011;59.912;30.300;2023-02-19T02:58:55;98975.88;;;-2.15;68.89
35918;BME280;22011;59.912;30.300;2023-02-19T03:01:28;98975.31;;;-2.19;69.46
35918;BME280;22011;59.912;30.300;2023-02-19T03:04:18;98976.38;;;-2.21;69.54
35918;BME280;22011;59.912;30.300;2023-02-19T03:06:48;98965.94;;;-2.21;69.36
35918;BME280;22011;59.912;30.300;2023-02-19T03:09:19;98973.53;;;-2.18;69.27
35918;BME280;22011;59.912;30.300;2023-02-19T03:11:51;98969.81;;;-2.16;69.23
35918;BME280;22011;59.912;30.300;2023-02-19T03:14:42;98969.00;;;-2.16;69.63
35918;BME280;22011;59.912;30.300;2023-02-19T03:17:35;98966.25;;;-2.15;69.40
35918;BME280;22011;59.912;30.300;2023-02-19T03:20:23;98971.72;;;-2.18;68.72
35918;BME280;22011;59.912;30.300;2023-02-19T03:22:53;98970.09;;;-2.19;68.78
35918;BME280;22011;59.912;30.300;2023-02-19T03:25:25;98969.50;;;-2.22;69.59
35918;BME280;22011;59.912;30.300;2023-02-19T03:28:16;98976.38;;;-2.21;69.26
35918;BME280;22011;59.912;30.300;2023-02-19T03:30:49;98969.38;;;-2.21;68.86
35918;BME280;22011;59.912;30.300;2023-02-19T03:33:22;98962.25;;;-2.19;69.10
35918;BME280;22011;59.912;30.300;2023-02-19T03:35:55;98975.81;;;-2.25;69.32
35918;BME280;22011;59.912;30.300;2023-02-19T03:38:27;98976.63;;;-2.24;68.79
35918;BME280;22011;59.912;30.300;2023-02-19T03:41:05;98975.94;;;-2.26;68.87
35918;BME280;22011;59.912;30.300;2023-02-19T03:43:37;98981.16;;;-2.26;69.16
35918;BME280;22011;59.912;30.300;2023-02-19T03:46:10;98975.38;;;-2.30;69.52
35918;BME280;22011;59.912;30.300;2023-02-19T03:48:47;98978.41;;;-2.25;69.64
35918;BME280;22011;59.912;30.300;2023-02-19T03:51:26;98980.53;;;-2.19;69.45
35918;BME280;22011;59.912;30.300;2023-02-19T03:54:02;98981.16;;;-2.26;69.29
35918;BME280;22011;59.912;30.300;2023-02-19T03:56:37;98975.25;;;-2.28;69.69
35918;BME280;22011;59.912;30.300;2023-02-19T03:59:10;98976.19;;;-2.29;69.87
35918;BME280;22011;59.912;30.300;2023-02-19T04:01:41;98974.53;;;-2.31;69.45
35918;BME280;22011;59.912;30.300;2023-02-19T04:04:17;98976.63;;;-2.24;69.62
35918;BME280;22011;59.912;30.300;2023-02-19T04:06:49;98973.31;;;-2.26;69.44
35918;BME280;22011;59.912;30.300;2023-02-19T04:09:20;98981.28;;;-2.28;69.25
35918;BME280;22011;59.912;30.300;2023-02-19T04:11:55;98967.78;;;-2.33;69.54
35918;BME280;22011;59.912;30.300;2023-02-19T04:14:27;98972.75;;;-2.30;69.67
35918;BME280;22011;59.912;30.300;2023-02-19T04:16:58;98975.75;;;-2.35;69.49
35918;BME280;22011;59.912;30.300;2023-02-19T04:19:31;98973.25;;;-2.36;69.43
35918;BME280;22011;59.912;30.300;2023-02-19T04:22:00;98982.16;;;-2.39;69.36
35918;BME280;22011;59.912;30.300;2023-02-19T04:24:31;98975.88;;;-2.36;69.62
35918;BME280;22011;59.912;30.300;2023-02-19T04:26:59;98974.22;;;-2.37;69.28
35918;BME280;22011;59.912;30.300;2023-02-19T04:29:26;98965.69;;;-2.39;68.93
35918;BME280;22011;59.912;30.300;2023-02-19T04:31:54;98974.34;;;-2.39;68.95
35918;BME280;22011;59.912;30.300;2023-02-19T04:34:21;98973.13;;;-2.35;68.97
35918;BME280;22011;59.912;30.300;2023-02-19T04:36:50;98974.34;;;-2.39;68.88
35918;BME280;22011;59.912;30.300;2023-02-19T04:39:18;98965.13;;;-2.43;68.45
35918;BME280;22011;59.912;30.300;2023-02-19T04:41:45;98969.63;;;-2.45;68.74
35918;BME280;22011;59.912;30.300;2023-02-19T04:44:13;98973.19;;;-2.46;69.32
35918;BME280;22011;59.912;30.300;2023-02-19T04:46:40;98973.06;;;-2.44;69.10
35918;BME280;22011;59.912;30.300;2023-02-19T04:49:08;98973.19;;;-2.46;68.87
35918;BME280;22011;59.912;30.300;2023-02-19T04:51:35;98971.53;;;-2.47;68.90
35918;BME280;22011;59.912;30.300;2023-02-19T04:54:04;98976.31;;;-2.52;68.82
35918;BME280;22011;59.912;30.300;2023-02-19T04:56:32;98977.13;;;-2.51;68.83
35918;BME280;22011;59.912;30.300;2023-02-19T04:58:59;98977.72;;;-2.48;69.41
35918;BME280;22011;59.912;30.300;2023-02-19T05:01:27;98980.06;;;-2.45;69.13
35918;BME280;22011;59.912;30.300;2023-02-19T05:03:54;98969.63;;;-2.45;68.62
35918;BME280;22011;59.912;30.300;2023-02-19T05:06:22;98973.91;;;-2.44;68.43
35918;BME280;22011;59.912;30.300;2023-02-19T05:08:49;98972.94;;;-2.43;68.00
35918;BME280;22011;59.912;30.300;2023-02-19T05:11:18;98973.78;;;-2.42;68.83
35918;BME280;22011;59.912;30.300;2023-02-19T05:13:46;98971.28;;;-2.44;68.38
35918;BME280;22011;59.912;30.300;2023-02-19T05:16:14;98977.22;;;-2.42;68.28
35918;BME280;22011;59.912;30.300;2023-02-19T05:18:43;98971.28;;;-2.44;67.80
35918;BME280;22011;59.912;30.300;2023-02-19T05:21:11;98973.31;;;-2.47;67.73
35918;BME280;22011;59.912;30.300;2023-02-19T05:23:39;98978.09;;;-2.52;67.75
35918;BME280;22011;59.912;30.300;2023-02-19T05:26:10;98978.09;;;-2.52;67.75
35918;BME280;22011;59.912;30.300;2023-02-19T05:28:39;98979.16;;;-2.55;67.78
35918;BME280;22011;59.912;30.300;2023-02-19T05:31:07;98976.69;;;-2.56;67.93
35918;BME280;22011;59.912;30.300;2023-02-19T05:33:35;98980.81;;;-2.54;68.37
35918;BME280;22011;59.912;30.300;2023-02-19T05:36:05;98982.94;;;-2.48;68.52
35918;BME280;22011;59.912;30.300;2023-02-19T05:38:33;98981.97;;;-2.47;67.97
35918;BME280;22011;59.912;30.300;2023-02-19T05:41:09;98979.56;;;-2.39;68.21
35918;BME280;22011;59.912;30.300;2023-02-19T05:43:36;98991.56;;;-2.47;69.01
35918;BME280;22011;59.912;30.300;2023-02-19T05:46:08;98982.69;;;-2.45;68.72
35918;BME280;22011;59.912;30.300;2023-02-19T05:48:35;98989.78;;;-2.47;68.64
35918;BME280;22011;59.912;30.300;2023-02-19T05:51:04;98996.41;;;-2.43;68.89
35918;BME280;22011;59.912;30.300;2023-02-19T05:53:32;98994.38;;;-2.39;68.75
35918;BME280;22011;59.912;30.300;2023-02-19T05:56:00;98993.31;;;-2.37;68.83
35918;BME280;22011;59.912;30.300;2023-02-19T05:58:28;98982.28;;;-2.40;68.93
35918;BME280;22011;59.912;30.300;2023-02-19T06:00:56;98993.56;;;-2.40;68.69
35918;BME280;22011;59.912;30.300;2023-02-19T06:03:25;98986.69;;;-2.41;69.14
35918;BME280;22011;59.912;30.300;2023-02-19T06:05:52;98988.59;;;-2.43;69.29
35918;BME280;22011;59.912;30.300;2023-02-19T06:08:20;98989.53;;;-2.44;69.17
35918;BME280;22011;59.912;30.300;2023-02-19T06:10:47;98991.91;;;-2.41;68.95
35918;BME280;22011;59.912;30.300;2023-02-19T06:13:14;98994.38;;;-2.39;69.80
35918;BME280;22011;59.912;30.300;2023-02-19T06:15:42;98991.41;;;-2.35;69.58
35918;BME280;22011;59.912;30.300;2023-02-19T06:18:10;98989.50;;;-2.33;69.21
35918;BME280;22011;59.912;30.300;2023-02-19T06:20:39;98989.94;;;-2.27;69.44
35918;BME280;22011;59.912;30.300;2023-02-19T06:23:06;98987.19;;;-2.26;69.20
35918;BME280;22011;59.912;30.300;2023-02-19T06:25:33;98985.16;;;-2.22;68.79
35918;BME280;22011;59.912;30.300;2023-02-19T06:28:01;98987.78;;;-2.22;68.96
35918;BME280;22011;59.912;30.300;2023-02-19T06:30:28;98983.00;;;-2.17;69.13
35918;BME280;22011;59.912;30.300;2023-02-19T06:32:56;98989.88;;;-2.16;68.47
35918;BME280;22011;59.912;30.300;2023-02-19T06:35:24;98993.19;;;-2.14;68.23
35918;BME280;22011;59.912;30.300;2023-02-19T06:37:53;98983.84;;;-2.07;69.13
35918;BME280;22011;59.912;30.300;2023-02-19T06:40:20;98986.88;;;-2.12;68.97
35918;BME280;22011;59.912;30.300;2023-02-19T06:42:47;98985.91;;;-2.11;68.52
35918;BME280;22011;59.912;30.300;2023-02-19T06:45:15;98985.78;;;-2.09;68.36
35918;BME280;22011;59.912;30.300;2023-02-19T06:47:42;98986.63;;;-2.09;67.41
35918;BME280;22011;59.912;30.300;2023-02-19T06:50:10;98991.28;;;-2.12;68.00
35918;BME280;22011;59.912;30.300;2023-02-19T06:52:37;98995.41;;;-2.10;68.83
35918;BME280;22011;59.912;30.300;2023-02-19T06:55:07;98995.56;;;-2.02;68.17
35918;BME280;22011;59.912;30.300;2023-02-19T06:57:35;98997.34;;;-2.02;67.81
35918;BME280;22011;59.912;30.300;2023-02-19T07:00:03;98996.00;;;-1.97;68.15
35918;BME280;22011;59.912;30.300;2023-02-19T07:02:31;98998.47;;;-1.95;67.81
35918;BME280;22011;59.912;30.300;2023-02-19T07:04:58;98995.47;;;-1.90;68.05
35918;BME280;22011;59.912;30.300;2023-02-19T07:07:26;98996.06;;;-1.87;67.33
35918;BME280;22011;59.912;30.300;2023-02-19T07:09:53;98991.28;;;-1.82;67.47
35918;BME280;22011;59.912;30.300;2023-02-19T07:12:22;98994.19;;;-1.75;67.21
35918;BME280;22011;59.912;30.300;2023-02-19T07:14:50;99002.03;;;-1.75;67.21
35918;BME280;22011;59.912;30.300;2023-02-19T07:17:17;99009.72;;;-1.74;67.05
35918;BME280;22011;59.912;30.300;2023-02-19T07:19:45;99005.75;;;-1.68;67.25
35918;BME280;22011;59.912;30.300;2023-02-19T07:22:12;99005.38;;;-1.63;66.63
35918;BME280;22011;59.912;30.300;2023-02-19T07:24:40;99012.13;;;-1.61;66.67
35918;BME280;22011;59.912;30.300;2023-02-19T07:27:07;99021.19;;;-1.65;66.40
35918;BME280;22011;59.912;30.300;2023-02-19T07:29:36;99017.47;;;-1.62;66.19
35918;BME280;22011;59.912;30.300;2023-02-19T07:32:03;99026.53;;;-1.67;67.07
35918;BME280;22011;59.912;30.300;2023-02-19T07:34:31;99015.13;;;-1.66;67.05
35918;BME280;22011;59.912;30.300;2023-02-19T07:36:59;99024.47;;;-1.63;66.51
35918;BME280;22011;59.912;30.300;2023-02-19T07:39:26;99019.25;;;-1.63;66.21
35918;BME280;22011;59.912;30.300;2023-02-19T07:41:54;99026.66;;;-1.68;67.17
35918;BME280;22011;59.912;30.300;2023-02-19T07:44:26;99025.25;;;-1.72;66.98
35918;BME280;22011;59.912;30.300;2023-02-19T07:46:55;99022.25;;;-1.68;66.63
35918;BME280;22011;59.912;30.300;2023-02-19T07:49:22;99023.66;;;-1.63;65.95
35918;BME280;22011;59.912;30.300;2023-02-19T07:51:50;99026.13;;;-1.62;66.23
35918;BME280;22011;59.912;30.300;2023-02-19T07:54:17;99026.97;;;-1.61;66.05
35918;BME280;22011;59.912;30.300;2023-02-19T07:56:45;99030.41;;;-1.61;65.60
35918;BME280;22011;59.912;30.300;2023-02-19T07:59:12;99024.09;;;-1.58;65.09
35918;BME280;22011;59.912;30.300;2023-02-19T08:01:40;99026.56;;;-1.57;65.17
35918;BME280;22011;59.912;30.300;2023-02-19T08:04:27;99026.34;;;-1.44;65.39
35918;BME280;22011;59.912;30.300;2023-02-19T08:06:54;99030.06;;;-1.47;65.24
35918;BME280;22011;59.912;30.300;2023-02-19T08:09:22;99029.78;;;-1.44;64.83
35918;BME280;22011;59.912;30.300;2023-02-19T08:11:49;99028.97;;;-1.44;65.59
35918;BME280;22011;59.912;30.300;2023-02-19T08:14:34;99032.28;;;-1.42;65.68
35918;BME280;22011;59.912;30.300;2023-02-19T08:17:01;99028.97;;;-1.44;65.43
35918;BME280;22011;59.912;30.300;2023-02-19T08:19:30;99036.09;;;-1.46;65.78
35918;BME280;22011;59.912;30.300;2023-02-19T08:21:58;99036.38;;;-1.49;65.42
35918;BME280;22011;59.912;30.300;2023-02-19T08:24:26;99034.44;;;-1.47;65.13
35918;BME280;22011;59.912;30.300;2023-02-19T08:26:53;99032.53;;;-1.45;65.01
35918;BME280;22011;59.912;30.300;2023-02-19T08:29:21;99038.31;;;-1.42;64.93
35918;BME280;22011;59.912;30.300;2023-02-19T08:31:48;99036.97;;;-1.36;64.70
35918;BME280;22011;59.912;30.300;2023-02-19T08:34:16;99035.88;;;-1.34;64.38
35918;BME280;22011;59.912;30.300;2023-02-19T08:36:44;99044.69;;;-1.35;65.17
35918;BME280;22011;59.912;30.300;2023-02-19T08:39:12;99036.41;;;-1.40;65.04
35918;BME280;22011;59.912;30.300;2023-02-19T08:41:39;99032.72;;;-1.37;65.15
35918;BME280;22011;59.912;30.300;2023-02-19T08:44:07;99038.09;;;-1.29;64.62
35918;BME280;22011;59.912;30.300;2023-02-19T08:46:35;99049.94;;;-1.25;64.63
35918;BME280;22011;59.912;30.300;2023-02-19T08:49:03;99049.69;;;-1.22;64.75
35918;BME280;22011;59.912;30.300;2023-02-19T08:51:30;99038.25;;;-1.21;64.14
35918;BME280;22011;59.912;30.300;2023-02-19T08:54:01;99043.22;;;-1.18;64.48
35918;BME280;22011;59.912;30.300;2023-02-19T08:56:28;99049.06;;;-1.35;64.25
35918;BME280;22011;59.912;30.300;2023-02-19T08:58:56;99054.53;;;-1.48;64.86
35918;BME280;22011;59.912;30.300;2023-02-19T09:01:23;99061.69;;;-1.40;64.86
35918;BME280;22011;59.912;30.300;2023-02-19T09:03:51;99057.63;;;-1.33;65.23
35918;BME280;22011;59.912;30.300;2023-02-19T09:06:19;99060.09;;;-1.32;65.58
35918;BME280;22011;59.912;30.300;2023-02-19T09:08:47;99066.84;;;-1.29;64.37
35918;BME280;22011;59.912;30.300;2023-02-19T09:11:16;99069.63;;;-1.21;63.74
35918;BME280;22011;59.912;30.300;2023-02-19T09:13:43;99073.88;;;-1.20;62.83
35918;BME280;22011;59.912;30.300;2023-02-19T09:16:11;99065.63;;;-1.25;63.21
35918;BME280;22011;59.912;30.300;2023-02-19T09:18:39;99067.53;;;-1.27;63.75
35918;BME280;22011;59.912;30.300;2023-02-19T09:21:06;99077.03;;;-1.26;63.41
35918;BME280;22011;59.912;30.300;2023-02-19T09:23:35;99078.00;;;-1.27;63.68
35918;BME280;22011;59.912;30.300;2023-02-19T09:26:04;99076.34;;;-1.28;63.62
35918;BME280;22011;59.912;30.300;2023-02-19T09:28:36;99081.03;;;-1.22;63.83
35918;BME280;22011;59.912;30.300;2023-02-19T09:31:08;99079.56;;;-1.15;63.67
35918;BME280;22011;59.912;30.300;2023-02-19T09:33:36;99075.59;;;-1.09;63.23
35918;BME280;22011;59.912;30.300;2023-02-19T09:36:04;99086.31;;;-1.03;61.95
35918;BME280;22011;59.912;30.300;2023-02-19T09:38:31;99079.16;;;-1.01;62.17
35918;BME280;22011;59.912;30.300;2023-02-19T09:41:05;99089.78;;;-0.92;62.42
35918;BME280;22011;59.912;30.300;2023-02-19T09:43:33;99092.34;;;-1.02;61.74
35918;BME280;22011;59.912;30.300;2023-02-19T09:46:07;99087.13;;;-1.02;61.92
35918;BME280;22011;59.912;30.300;2023-02-19T09:48:36;99088.53;;;-1.08;61.57
35918;BME280;22011;59.912;30.300;2023-02-19T09:51:04;99095.78;;;-1.11;60.95
35918;BME280;22011;59.912;30.300;2023-02-19T09:53:39;99098.28;;;-1.10;61.07
35918;BME280;22011;59.912;30.300;2023-02-19T09:56:08;99095.63;;;-1.19;61.18
35918;BME280;22011;59.912;30.300;2023-02-19T09:58:44;99105.41;;;-1.12;62.25
35918;BME280;22011;59.912;30.300;2023-02-19T10:01:14;99100.59;;;-1.16;61.63
35918;BME280;22011;59.912;30.300;2023-02-19T10:03:44;99103.06;;;-1.15;61.32
35918;BME280;22011;59.912;30.300;2023-02-19T10:06:15;99102.94;;;-1.13;61.26
35918;BME280;22011;59.912;30.300;2023-02-19T10:08:47;99107.72;;;-1.18;61.22
35918;BME280;22011;59.912;30.300;2023-02-19T10:11:16;99102.91;;;-1.23;61.48
35918;BME280;22011;59.912;30.300;2023-02-19T10:13:46;99107.16;;;-1.22;62.30
35918;BME280;22011;59.912;30.300;2023-02-19T10:16:19;99103.63;;;-1.11;62.86
35918;BME280;22011;59.912;30.300;2023-02-19T10:18:47;99107.91;;;-1.10;63.55
35918;BME280;22011;59.912;30.300;2023-02-19T10:21:17;99108.16;;;-1.04;62.57
35918;BME280;22011;59.912;30.300;2023-02-19T10:23:48;99118.22;;;-0.99;61.86
35918;BME280;22011;59.912;30.300;2023-02-19T10:26:18;99118.22;;;-0.99;62.14
35918;BME280;22011;59.912;30.300;2023-02-19T10:28:45;99128.69;;;-0.99;61.36
35918;BME280;22011;59.912;30.300;2023-02-19T10:31:17;99120.97;;;-1.01;62.11
35918;BME280;22011;59.912;30.300;2023-02-19T10:33:50;99122.38;;;-0.96;62.34
35918;BME280;22011;59.912;30.300;2023-02-19T10:36:28;99126.38;;;-0.92;62.55
35918;BME280;22011;59.912;30.300;2023-02-19T10:38:56;99121.25;;;-1.04;61.63
35918;BME280;22011;59.912;30.300;2023-02-19T10:41:26;99120.28;;;-1.03;62.17
35918;BME280;22011;59.912;30.300;2023-02-19T10:43:56;99128.69;;;-0.99;62.07
35918;BME280;22011;59.912;30.300;2023-02-19T10:46:30;99129.00;;;-0.92;61.79
35918;BME280;22011;59.912;30.300;2023-02-19T10:49:01;99131.16;;;-0.98;61.92
35918;BME280;22011;59.912;30.300;2023-02-19T10:51:31;99135.00;;;-1.02;61.20
35918;BME280;22011;59.912;30.300;2023-02-19T10:54:05;99126.22;;;-1.01;61.80
35918;BME280;22011;59.912;30.300;2023-02-19T10:56:33;99133.22;;;-1.11;60.93
35918;BME280;22011;59.912;30.300;2023-02-19T10:59:22;99130.34;;;-0.98;62.25
35918;BME280;22011;59.912;30.300;2023-02-19T11:01:56;99132.53;;;-1.03;62.43
35918;BME280;22011;59.912;30.300;2023-02-19T11:04:25;99128.13;;;-1.12;61.88
35918;BME280;22011;59.912;30.300;2023-02-19T11:06:52;99137.22;;;-1.07;61.79
35918;BME280;22011;59.912;30.300;2023-02-19T11:09:24;99138.44;;;-1.01;61.64
35918;BME280;22011;59.912;30.300;2023-02-19T11:11:55;99140.66;;;-1.06;62.98
35918;BME280;22011;59.912;30.300;2023-02-19T11:14:24;99141.34;;;-1.04;62.48
35918;BME280;22011;59.912;30.300;2023-02-19T11:16:56;99146.84;;;-0.98;62.50
35918;BME280;22011;59.912;30.300;2023-02-19T11:19:28;99143.03;;;-0.93;63.04
35918;BME280;22011;59.912;30.300;2023-02-19T11:21:58;99154.59;;;-0.86;62.19
35918;BME280;22011;59.912;30.300;2023-02-19T11:24:31;99146.09;;;-0.79;62.34
35918;BME280;22011;59.912;30.300;2023-02-19T11:27:04;99148.19;;;-0.73;62.12
35918;BME280;22011;59.912;30.300;2023-02-19T11:29:33;99163.75;;;-0.71;62.53
35918;BME280;22011;59.912;30.300;2023-02-19T11:32:25;99150.88;;;-0.53;63.40
35918;BME280;22011;59.912;30.300;2023-02-19T11:35:13;99151.69;;;-0.53;61.96
35918;BME280;22011;59.912;30.300;2023-02-19T11:37:53;99154.41;;;-0.64;61.82
35918;BME280;22011;59.912;30.300;2023-02-19T11:40:28;99163.19;;;-0.75;61.44
35918;BME280;22011;59.912;30.300;2023-02-19T11:43:06;99166.38;;;-0.71;61.92
35918;BME280;22011;59.912;30.300;2023-02-19T11:45:46;99155.50;;;-0.67;60.90
35918;BME280;22011;59.912;30.300;2023-02-19T11:48:33;99163.78;;;-0.61;61.51
35918;BME280;22011;59.912;30.300;2023-02-19T11:51:21;99166.53;;;-0.63;61.34
35918;BME280;22011;59.912;30.300;2023-02-19T11:54:03;99164.56;;;-0.71;61.36
35918;BME280;22011;59.912;30.300;2023-02-19T11:56:35;99176.81;;;-0.71;61.21
35918;BME280;22011;59.912;30.300;2023-02-19T11:59:11;99178.22;;;-0.67;61.23
35918;BME280;22011;59.912;30.300;2023-02-19T12:02:04;99182.22;;;-0.63;61.42
35918;BME280;22011;59.912;30.300;2023-02-19T12:05:19;99182.91;;;-0.61;61.64
35918;BME280;22011;59.912;30.300;2023-02-19T12:08:19;99182.22;;;-0.63;61.88
35918;BME280;22011;59.912;30.300;2023-02-19T12:11:10;99190.47;;;-0.68;61.77
35918;BME280;22011;59.912;30.300;2023-02-19T12:13:48;99192.34;;;-0.79;61.25
35918;BME280;22011;59.912;30.300;2023-02-19T12:16:22;99199.75;;;-0.84;61.00
35918;BME280;22011;59.912;30.300;2023-02-19T12:19:05;99200.19;;;-0.79;61.64
35918;BME280;22011;59.912;30.300;2023-02-19T12:21:57;99205.84;;;-0.74;61.71
35918;BME280;22011;59.912;30.300;2023-02-19T12:24:53;99208.06;;;-0.70;63.63
35918;BME280;22011;59.912;30.300;2023-02-19T12:27:37;99210.25;;;-0.75;62.95
35918;BME280;22011;59.912;30.300;2023-02-19T12:30:38;99212.78;;;-0.63;63.11
35918;BME280;22011;59.912;30.300;2023-02-19T12:33:31;99208.13;;;-0.60;63.78
35918;BME280;22011;59.912;30.300;2023-02-19T12:36:06;99216.34;;;-0.64;62.31
35918;BME280;22011;59.912;30.300;2023-02-19T12:38:42;99221.47;;;-0.63;62.00
35918;BME280;22011;59.912;30.300;2023-02-19T12:41:18;99223.81;;;-0.60;62.12
35918;BME280;22011;59.912;30.300;2023-02-19T12:43:52;99229.56;;;-0.66;63.44
35918;BME280;22011;59.912;30.300;2023-02-19T12:46:26;99232.84;;;-0.74;63.10
35918;BME280;22011;59.912;30.300;2023-02-19T12:48:58;99232.00;;;-0.74;62.82
35918;BME280;22011;59.912;30.300;2023-02-19T12:51:34;99234.81;;;-0.66;63.04
35918;BME280;22011;59.912;30.300;2023-02-19T12:54:09;99234.09;;;-0.68;61.85
35918;BME280;22011;59.912;30.300;2023-02-19T12:56:41;99237.28;;;-0.64;61.39
35918;BME280;22011;59.912;30.300;2023-02-19T12:59:14;99230.97;;;-0.62;62.28
35918;BME280;22011;59.912;30.300;2023-02-19T13:01:47;99241.28;;;-0.60;62.33
35918;BME280;22011;59.912;30.300;2023-02-19T13:04:25;99235.09;;;-0.59;62.57
35918;BME280;22011;59.912;30.300;2023-02-19T13:06:57;99251.44;;;-0.67;62.22
35918;BME280;22011;59.912;30.300;2023-02-19T13:09:32;99250.22;;;-0.63;62.33
35918;BME280;22011;59.912;30.300;2023-02-19T13:12:04;99254.06;;;-0.67;62.43
35918;BME280;22011;59.912;30.300;2023-02-19T13:14:37;99262.56;;;-0.75;62.95
35918;BME280;22011;59.912;30.300;2023-02-19T13:17:21;99263.00;;;-0.70;63.38